Time,TemperatureF,DewpointF,PressureIn,WindDirection,WindDirectionDegrees,WindSpeedMPH,WindSpeedGustMPH,Humidity,HourlyPrecipIn,Conditions,Clouds,dailyrainin,SoftwareType,DateUTC
2013-04-11 00:00:00,61.0,52.3,30.01,North,0,15.0,24.0,73,0.00,,,-99.99,Weather View 32 v70,2013-04-11 07:00:00,
2013-04-11 00:06:00,61.0,52.3,30.01,North,0,15.0,24.0,73,0.00,,,-99.99,Weather View 32 v70,2013-04-11 07:06:00,
2013-04-11 00:21:00,59.0,52.1,30.03,NNE,22,0.0,24.0,78,0.00,,,-99.99,Weather View 32 v70,2013-04-11 07:21:00,
2013-04-11 00:37:00,58.0,52.9,30.03,NNW,338,0.0,24.0,83,0.00,,,-99.99,Weather View 32 v70,2013-04-11 07:37:00,
2013-04-11 00:51:00,58.0,52.5,30.02,North,0,10.0,23.0,82,0.00,,,-99.99,Weather View 32 v70,2013-04-11 07:51:00,
2013-04-11 01:00:00,60.0,52.4,30.01,North,0,6.0,17.0,76,0.00,,,-99.99,Weather View 32 v70,2013-04-11 08:00:00,
2013-04-11 01:06:00,60.0,52.4,30.01,North,0,6.0,17.0,76,0.00,,,-99.99,Weather View 32 v70,2013-04-11 08:06:00,
2013-04-11 01:21:00,60.0,52.0,30.01,NNW,338,0.0,17.0,75,0.00,,,-99.99,Weather View 32 v70,2013-04-11 08:21:00,
2013-04-11 01:36:00,59.0,51.8,30.01,NNE,22,0.0,17.0,77,0.00,,,-99.99,Weather View 32 v70,2013-04-11 08:36:00,
2013-04-11 01:51:00,58.0,51.5,30.00,NNE,22,10.0,17.0,79,0.00,,,-99.99,Weather View 32 v70,2013-04-11 08:51:00,
2013-04-11 02:00:00,58.0,50.8,29.99,NNE,22,6.0,19.0,77,0.00,,,-99.99,Weather View 32 v70,2013-04-11 09:00:00,
2013-04-11 02:07:00,58.0,50.8,29.99,NNE,22,6.0,19.0,77,0.00,,,-99.99,Weather View 32 v70,2013-04-11 09:07:00,
2013-04-11 02:22:00,57.0,50.5,30.00,NNE,22,0.0,19.0,79,0.00,,,-99.99,Weather View 32 v70,2013-04-11 09:22:00,
2013-04-11 02:36:00,57.0,51.5,29.99,NNE,22,8.0,19.0,82,0.00,,,-99.99,Weather View 32 v70,2013-04-11 09:36:00,
2013-04-11 02:51:00,57.0,50.5,29.98,North,0,17.0,19.0,79,0.00,,,-99.99,Weather View 32 v70,2013-04-11 09:51:00,
2013-04-11 03:00:00,56.0,50.2,29.98,North,0,10.0,19.0,81,0.00,,,-99.99,Weather View 32 v70,2013-04-11 10:00:00,
2013-04-11 03:06:00,56.0,50.2,29.98,North,0,10.0,19.0,81,0.00,,,-99.99,Weather View 32 v70,2013-04-11 10:06:00,
2013-04-11 03:21:00,55.0,49.3,29.98,NNE,22,11.0,23.0,81,0.00,,,-99.99,Weather View 32 v70,2013-04-11 10:21:00,
2013-04-11 03:36:00,53.0,49.2,29.99,NNE,22,0.0,23.0,87,0.00,,,-99.99,Weather View 32 v70,2013-04-11 10:36:00,
2013-04-11 03:51:00,52.0,48.9,29.99,NNE,22,0.0,23.0,89,0.00,,,-99.99,Weather View 32 v70,2013-04-11 10:51:00,
2013-04-11 04:00:00,52.0,49.4,29.98,NNE,22,1.0,23.0,91,0.00,,,-99.99,Weather View 32 v70,2013-04-11 11:00:00,
2013-04-11 04:06:00,52.0,49.4,29.98,NNE,22,1.0,23.0,91,0.00,,,-99.99,Weather View 32 v70,2013-04-11 11:06:00,
2013-04-11 04:21:00,52.0,49.7,29.98,North,0,6.0,20.0,92,0.00,,,-99.99,Weather View 32 v70,2013-04-11 11:21:00,
2013-04-11 04:36:00,52.0,49.2,29.98,NNE,22,8.0,20.0,90,0.00,,,-99.99,Weather View 32 v70,2013-04-11 11:36:00,
2013-04-11 04:51:00,53.0,48.9,29.97,NNE,22,6.0,20.0,86,0.00,,,-99.99,Weather View 32 v70,2013-04-11 11:51:00,
2013-04-11 05:00:00,51.0,48.2,29.98,NNE,22,0.0,20.0,90,0.00,,,-99.99,Weather View 32 v70,2013-04-11 12:00:00,
2013-04-11 05:06:00,51.0,48.2,29.98,NNE,22,0.0,20.0,90,0.00,,,-99.99,Weather View 32 v70,2013-04-11 12:06:00,
2013-04-11 05:21:00,51.0,48.8,29.97,NNE,22,0.0,15.0,92,0.00,,,-99.99,Weather View 32 v70,2013-04-11 12:21:00,
2013-04-11 05:36:00,51.0,48.8,29.97,NNE,22,0.0,15.0,92,0.00,,,-99.99,Weather View 32 v70,2013-04-11 12:36:00,
2013-04-11 05:52:00,51.0,48.8,29.96,NNE,22,0.0,8.0,92,0.00,,,-99.99,Weather View 32 v70,2013-04-11 12:52:00,
2013-04-11 06:00:00,51.0,48.5,29.96,NNE,22,0.0,5.0,91,0.00,,,-99.99,Weather View 32 v70,2013-04-11 13:00:00,
2013-04-11 06:06:00,51.0,48.5,29.96,NNE,22,0.0,5.0,91,0.00,,,-99.99,Weather View 32 v70,2013-04-11 13:06:00,
2013-04-11 06:21:00,51.0,48.5,29.97,North,0,0.0,5.0,91,0.00,,,-99.99,Weather View 32 v70,2013-04-11 13:21:00,
2013-04-11 06:36:00,51.0,48.5,29.97,North,0,0.0,3.0,91,0.00,,,-99.99,Weather View 32 v70,2013-04-11 13:36:00,
2013-04-11 06:52:00,51.0,47.9,29.96,NNE,22,0.0,3.0,89,0.00,,,-99.99,Weather View 32 v70,2013-04-11 13:52:00,
2013-04-11 07:00:00,51.0,47.9,29.96,NNE,22,0.0,3.0,89,0.00,,,-99.99,Weather View 32 v70,2013-04-11 14:00:00,
2013-04-11 07:06:00,51.0,47.9,29.96,NNE,22,0.0,3.0,89,0.00,,,-99.99,Weather View 32 v70,2013-04-11 14:06:00,
2013-04-11 07:21:00,51.0,48.2,29.97,NNE,22,0.0,1.0,90,0.00,,,-99.99,Weather View 32 v70,2013-04-11 14:21:00,
2013-04-11 07:36:00,52.0,48.9,29.97,NNE,22,0.0,1.0,89,0.00,,,-99.99,Weather View 32 v70,2013-04-11 14:36:00,
2013-04-11 07:51:00,53.0,49.5,29.97,NNE,22,0.0,1.0,88,0.00,,,-99.99,Weather View 32 v70,2013-04-11 14:51:00,
2013-04-11 08:00:00,53.0,48.6,29.97,NNE,22,0.0,1.0,85,0.00,,,-99.99,Weather View 32 v70,2013-04-11 15:00:00,
2013-04-11 08:06:00,53.0,48.6,29.97,NNE,22,0.0,1.0,85,0.00,,,-99.99,Weather View 32 v70,2013-04-11 15:06:00,
2013-04-11 08:36:00,56.0,49.2,29.97,NNE,22,0.0,8.0,78,0.00,,,-99.99,Weather View 32 v70,2013-04-11 15:36:00,
2013-04-11 09:00:00,59.0,49.6,29.97,NNE,22,8.0,15.0,71,0.00,,,-99.99,Weather View 32 v70,2013-04-11 16:00:00,
2013-04-11 09:06:00,59.0,49.6,29.97,NNE,22,8.0,15.0,71,0.00,,,-99.99,Weather View 32 v70,2013-04-11 16:06:00,
2013-04-11 09:21:00,59.0,48.8,29.96,North,0,7.0,15.0,69,0.00,,,-99.99,Weather View 32 v70,2013-04-11 16:21:00,
2013-04-11 09:36:00,61.0,50.3,29.95,NNE,22,7.0,15.0,68,0.00,,,-99.99,Weather View 32 v70,2013-04-11 16:36:00,
2013-04-11 09:51:00,61.0,49.1,29.95,NNE,22,5.0,15.0,65,0.00,,,-99.99,Weather View 32 v70,2013-04-11 16:51:00,
2013-04-11 10:00:00,62.0,50.1,29.95,NNE,22,5.0,14.0,65,0.00,,,-99.99,Weather View 32 v70,2013-04-11 17:00:00,
2013-04-11 10:06:00,62.0,50.1,29.95,NNE,22,5.0,14.0,65,0.00,,,-99.99,Weather View 32 v70,2013-04-11 17:06:00,
2013-04-11 10:21:00,63.0,50.2,29.96,North,0,1.0,14.0,63,0.00,,,-99.99,Weather View 32 v70,2013-04-11 17:21:00,
2013-04-11 10:36:00,64.0,50.7,29.96,NNE,22,3.0,13.0,62,0.00,,,-99.99,Weather View 32 v70,2013-04-11 17:36:00,
2013-04-11 10:51:00,65.0,50.7,29.96,North,0,0.0,13.0,60,0.00,,,-99.99,Weather View 32 v70,2013-04-11 17:51:00,
2013-04-11 11:00:00,66.0,51.2,29.96,NNE,22,12.0,14.0,59,0.00,,,-99.99,Weather View 32 v70,2013-04-11 18:00:00,
2013-04-11 11:06:00,66.0,51.2,29.96,NNE,22,12.0,14.0,59,0.00,,,-99.99,Weather View 32 v70,2013-04-11 18:06:00,
2013-04-11 11:21:00,67.0,51.7,29.96,NNE,22,9.0,16.0,58,0.00,,,-99.99,Weather View 32 v70,2013-04-11 18:21:00,
2013-04-11 11:36:00,67.0,50.3,29.97,NNE,22,8.0,17.0,55,0.00,,,-99.99,Weather View 32 v70,2013-04-11 18:36:00,
2013-04-11 11:51:00,68.0,51.2,29.96,NNE,22,10.0,17.0,55,0.00,,,-99.99,Weather View 32 v70,2013-04-11 18:51:00,
2013-04-11 12:00:00,68.0,51.2,29.96,NNE,22,0.0,17.0,55,0.00,,,-99.99,Weather View 32 v70,2013-04-11 19:00:00,
2013-04-11 12:06:00,68.0,51.2,29.96,NNE,22,0.0,17.0,55,0.00,,,-99.99,Weather View 32 v70,2013-04-11 19:06:00,
2013-04-11 12:22:00,68.0,50.2,29.95,North,0,4.0,17.0,53,0.00,,,-99.99,Weather View 32 v70,2013-04-11 19:22:00,
2013-04-11 12:36:00,69.0,49.5,29.94,NNE,22,4.0,15.0,50,0.00,,,-99.99,Weather View 32 v70,2013-04-11 19:36:00,
2013-04-11 12:51:00,69.0,49.5,29.93,NNE,22,5.0,15.0,50,0.00,,,-99.99,Weather View 32 v70,2013-04-11 19:51:00,
2013-04-11 13:06:00,70.0,49.4,29.94,North,0,0.0,15.0,48,0.00,,,-99.99,Weather View 32 v70,2013-04-11 20:06:00,
2013-04-11 13:21:00,71.0,49.7,29.93,NNW,338,1.0,12.0,47,0.00,,,-99.99,Weather View 32 v70,2013-04-11 20:21:00,
2013-04-11 13:36:00,71.0,51.9,29.94,NNW,338,0.0,15.0,51,0.00,,,-99.99,Weather View 32 v70,2013-04-11 20:36:00,
2013-04-11 13:51:00,69.0,51.1,29.94,North,0,8.0,19.0,53,0.00,,,-99.99,Weather View 32 v70,2013-04-11 20:51:00,
2013-04-11 14:00:00,70.0,49.9,29.93,NNE,22,0.0,19.0,49,0.00,,,-99.99,Weather View 32 v70,2013-04-11 21:00:00,
2013-04-11 14:06:00,70.0,49.9,29.93,NNE,22,0.0,19.0,49,0.00,,,-99.99,Weather View 32 v70,2013-04-11 21:06:00,
2013-04-11 14:21:00,72.0,50.6,29.92,North,0,3.0,19.0,47,0.00,,,-99.99,Weather View 32 v70,2013-04-11 21:21:00,
2013-04-11 14:36:00,72.0,47.6,29.92,North,0,5.0,19.0,42,0.00,,,-99.99,Weather View 32 v70,2013-04-11 21:36:00,
2013-04-11 14:52:00,73.0,46.5,29.91,NNE,22,0.0,13.0,39,0.00,,,-99.99,Weather View 32 v70,2013-04-11 21:52:00,
2013-04-11 15:00:00,74.0,46.7,29.90,North,0,2.0,14.0,38,0.00,,,-99.99,Weather View 32 v70,2013-04-11 22:00:00,
2013-04-11 15:22:00,74.0,47.4,29.89,North,0,0.0,14.0,39,0.00,,,-99.99,Weather View 32 v70,2013-04-11 22:22:00,
2013-04-11 15:36:00,75.0,46.9,29.89,NNE,22,0.0,14.0,37,0.00,,,-99.99,Weather View 32 v70,2013-04-11 22:36:00,
2013-04-11 15:51:00,76.0,47.8,29.88,NNW,338,0.0,14.0,37,0.00,,,-99.99,Weather View 32 v70,2013-04-11 22:51:00,
2013-04-11 16:00:00,76.0,49.2,29.87,NNE,22,3.0,10.0,39,0.00,,,-99.99,Weather View 32 v70,2013-04-11 23:00:00,
2013-04-11 16:06:00,76.0,49.2,29.87,NNE,22,3.0,10.0,39,0.00,,,-99.99,Weather View 32 v70,2013-04-11 23:06:00,
2013-04-11 16:22:00,77.0,49.4,29.87,NNE,22,5.0,13.0,38,0.00,,,-99.99,Weather View 32 v70,2013-04-11 23:22:00,
2013-04-11 16:36:00,76.0,49.2,29.87,NNW,338,5.0,13.0,39,0.00,,,-99.99,Weather View 32 v70,2013-04-11 23:36:00,
2013-04-11 16:51:00,74.0,49.4,29.86,North,0,6.0,13.0,42,0.00,,,-99.99,Weather View 32 v70,2013-04-11 23:51:00,
2013-04-11 17:00:00,73.0,47.2,29.87,NNW,338,8.0,17.0,40,0.00,,,-99.99,Weather View 32 v70,2013-04-12 00:00:00,
2013-04-11 17:06:00,73.0,47.2,29.87,NNW,338,8.0,17.0,40,0.00,,,-99.99,Weather View 32 v70,2013-04-12 00:06:00,
2013-04-11 17:21:00,73.0,49.1,29.86,NNE,22,0.0,17.0,43,0.00,,,-99.99,Weather View 32 v70,2013-04-12 00:21:00,
2013-04-11 17:36:00,72.0,50.0,29.86,North,0,11.0,17.0,46,0.00,,,-99.99,Weather View 32 v70,2013-04-12 00:36:00,
2013-04-11 17:52:00,70.0,48.8,29.86,North,0,13.0,17.0,47,0.00,,,-99.99,Weather View 32 v70,2013-04-12 00:52:00,
2013-04-11 18:00:00,69.0,48.4,29.86,NNE,22,10.0,15.0,48,0.00,,,-99.99,Weather View 32 v70,2013-04-12 01:00:00,
2013-04-11 18:06:00,69.0,48.4,29.86,NNE,22,10.0,15.0,48,0.00,,,-99.99,Weather View 32 v70,2013-04-12 01:06:00,
2013-04-11 18:22:00,68.0,49.1,29.85,North,0,4.0,14.0,51,0.00,,,-99.99,Weather View 32 v70,2013-04-12 01:22:00,
2013-04-11 18:37:00,67.0,48.7,29.85,North,0,6.0,14.0,52,0.00,,,-99.99,Weather View 32 v70,2013-04-12 01:37:00,
2013-04-11 18:51:00,66.0,48.8,29.85,North,0,3.0,14.0,54,0.00,,,-99.99,Weather View 32 v70,2013-04-12 01:51:00,
2013-04-11 19:00:00,65.0,48.9,29.85,North,0,4.0,13.0,56,0.00,,,-99.99,Weather View 32 v70,2013-04-12 02:00:00,
2013-04-11 19:07:00,65.0,48.9,29.85,North,0,4.0,13.0,56,0.00,,,-99.99,Weather View 32 v70,2013-04-12 02:07:00,
2013-04-11 19:21:00,64.0,49.3,29.86,NNE,22,3.0,13.0,59,0.00,,,-99.99,Weather View 32 v70,2013-04-12 02:21:00,
2013-04-11 19:36:00,63.0,48.0,29.85,North,0,4.0,13.0,58,0.00,,,-99.99,Weather View 32 v70,2013-04-12 02:36:00,
2013-04-11 19:52:00,62.0,47.9,29.85,NNE,22,0.0,13.0,60,0.00,,,-99.99,Weather View 32 v70,2013-04-12 02:52:00,
2013-04-11 20:06:00,62.0,47.9,29.85,NNE,22,0.0,10.0,60,0.00,,,-99.99,Weather View 32 v70,2013-04-12 03:06:00,
2013-04-11 20:22:00,62.0,48.4,29.86,NNE,22,0.0,9.0,61,0.00,,,-99.99,Weather View 32 v70,2013-04-12 03:22:00,
2013-04-11 20:36:00,60.0,49.0,29.86,NNE,22,0.0,25.0,67,0.00,,,-99.99,Weather View 32 v70,2013-04-12 03:36:00,
2013-04-11 20:51:00,60.0,49.8,29.87,North,0,0.0,25.0,69,0.00,,,-99.99,Weather View 32 v70,2013-04-12 03:51:00,
2013-04-11 21:06:00,59.0,49.6,29.87,NNE,22,6.0,25.0,71,0.00,,,-99.99,Weather View 32 v70,2013-04-12 04:06:00,
2013-04-11 21:22:00,59.0,50.0,29.87,NNE,22,0.0,25.0,72,0.00,,,-99.99,Weather View 32 v70,2013-04-12 04:22:00,
2013-04-11 21:37:00,58.0,49.4,29.88,NNE,22,0.0,8.0,73,0.00,,,-99.99,Weather View 32 v70,2013-04-12 04:37:00,
2013-04-11 21:51:00,58.0,48.6,29.88,NNE,22,0.0,11.0,71,0.00,,,-99.99,Weather View 32 v70,2013-04-12 04:51:00,
2013-04-11 22:06:00,58.0,48.2,29.87,NNE,22,0.0,12.0,70,0.00,,,-99.99,Weather View 32 v70,2013-04-12 05:06:00,
2013-04-11 22:21:00,57.0,48.8,29.87,NNE,22,0.0,12.0,74,0.00,,,-99.99,Weather View 32 v70,2013-04-12 05:21:00,
2013-04-11 22:23:00,57.0,48.8,29.87,NNE,22,0.0,12.0,74,0.00,,,-99.99,Weather View 32 v70,2013-04-12 05:23:00,
2013-04-11 22:36:00,57.0,48.4,29.87,NNE,22,0.0,12.0,73,0.00,,,-99.99,Weather View 32 v70,2013-04-12 05:36:00,
2013-04-11 22:51:00,57.0,48.8,29.87,NNE,22,0.0,12.0,74,0.00,,,-99.99,Weather View 32 v70,2013-04-12 05:51:00,
2013-04-11 23:06:00,57.0,48.8,29.86,NNE,22,2.0,6.0,74,0.00,,,-99.99,Weather View 32 v70,2013-04-12 06:06:00,
2013-04-11 23:21:00,55.0,47.6,29.86,NNE,22,0.0,7.0,76,0.00,,,-99.99,Weather View 32 v70,2013-04-12 06:21:00,
2013-04-11 23:37:00,54.0,47.6,29.86,NNE,22,0.0,7.0,79,0.00,,,-99.99,Weather View 32 v70,2013-04-12 06:37:00,
2013-04-11 23:51:00,53.0,47.3,29.87,North,0,6.0,9.0,81,0.00,,,-99.99,Weather View 32 v70,2013-04-12 06:51:00,